Terminal Aerodrome Forecast
Issued by NWS

Home | Current Version | Previous Version | Text Only | Print | Product List | Glossary On
Versions: 1 2 3 4 5 6 7 8 9 10 11 12 13 14 15 16 17 18 19 20 21 22 23 24
000
FTUS45 KREV 192300
TAFCXP
TAF
KCXP 192340Z 2000/2024 20008KT P6SM VCSH BKN050
     FM200800 VRB03KT P6SM SCT050 OVC140
     FM201700 17005KT P6SM VCSH SCT040 BKN090
     FM202100 21009KT P6SM FEW060 BKN110=

USA.gov is the U.S. government's official web portal to all federal, state and local government web resources and services.